Time,TemperatureF,DewpointF,PressureIn,WindDirection,WindDirectionDegrees,WindSpeedMPH,WindSpeedGustMPH,Humidity,HourlyPrecipIn,Conditions,Clouds,dailyrainin,SoftwareType,DateUTC
2013-04-11 00:00:00,59.0,-99.9,29.83,North,359,19.0,23.0,-999,-99.99,,,-99.99,,2013-04-11 05:00:00,
2013-04-11 00:32:00,59.0,-99.9,29.83,North,359,19.0,23.0,-999,-99.99,,,-99.99,,2013-04-11 05:32:00,
2013-04-11 00:42:00,59.0,-99.9,29.83,North,359,19.0,23.0,-999,-99.99,,,-99.99,,2013-04-11 05:42:00,
2013-04-11 00:52:00,59.0,-99.9,29.83,North,359,19.0,23.0,-999,-99.99,,,-99.99,,2013-04-11 05:52:00,
2013-04-11 01:00:00,58.0,-99.9,29.82,North,350,23.0,29.0,-999,-99.99,,,-99.99,,2013-04-11 06:00:00,
2013-04-11 01:32:00,58.0,-99.9,29.82,North,350,23.0,29.0,-999,-99.99,,,-99.99,,2013-04-11 06:32:00,
2013-04-11 01:42:00,58.0,-99.9,29.82,North,350,23.0,29.0,-999,-99.99,,,-99.99,,2013-04-11 06:42:00,
2013-04-11 01:53:00,58.0,-99.9,29.82,North,350,23.0,29.0,-999,-99.99,,,-99.99,,2013-04-11 06:53:00,
2013-04-11 02:00:00,58.0,-99.9,29.82,North,351,23.0,30.0,-999,-99.99,,,-99.99,,2013-04-11 07:00:00,
2013-04-11 02:32:00,58.0,-99.9,29.82,North,351,23.0,30.0,-999,-99.99,,,-99.99,,2013-04-11 07:32:00,
2013-04-11 02:43:00,58.0,-99.9,29.82,North,351,23.0,30.0,-999,-99.99,,,-99.99,,2013-04-11 07:43:00,
2013-04-11 02:52:00,58.0,-99.9,29.82,North,351,23.0,30.0,-999,-99.99,,,-99.99,,2013-04-11 07:52:00,
2013-04-11 03:00:00,56.0,-99.9,29.80,North,3,21.0,29.0,-999,-99.99,,,-99.99,,2013-04-11 08:00:00,
2013-04-11 03:33:00,56.0,-99.9,29.80,North,3,21.0,29.0,-999,-99.99,,,-99.99,,2013-04-11 08:33:00,
2013-04-11 03:43:00,56.0,-99.9,29.80,North,3,21.0,29.0,-999,-99.99,,,-99.99,,2013-04-11 08:43:00,
2013-04-11 03:52:00,56.0,-99.9,29.80,North,3,21.0,29.0,-999,-99.99,,,-99.99,,2013-04-11 08:52:00,
2013-04-11 04:00:00,53.0,-99.9,29.85,NNW,339,28.0,33.0,-999,-99.99,,,-99.99,,2013-04-11 09:00:00,
2013-04-11 04:33:00,53.0,-99.9,29.85,NNW,339,28.0,33.0,-999,-99.99,,,-99.99,,2013-04-11 09:33:00,
2013-04-11 04:43:00,53.0,-99.9,29.85,NNW,339,28.0,33.0,-999,-99.99,,,-99.99,,2013-04-11 09:43:00,
2013-04-11 04:53:00,53.0,-99.9,29.85,NNW,339,28.0,33.0,-999,-99.99,,,-99.99,,2013-04-11 09:53:00,
2013-04-11 05:00:00,49.0,-99.9,29.85,North,10,24.0,34.0,-999,-99.99,,,-99.99,,2013-04-11 10:00:00,
2013-04-11 05:32:00,49.0,-99.9,29.85,North,10,24.0,34.0,-999,-99.99,,,-99.99,,2013-04-11 10:32:00,
2013-04-11 05:42:00,49.0,-99.9,29.85,North,10,24.0,34.0,-999,-99.99,,,-99.99,,2013-04-11 10:42:00,
2013-04-11 05:53:00,49.0,-99.9,29.85,North,10,24.0,34.0,-999,-99.99,,,-99.99,,2013-04-11 10:53:00,
2013-04-11 06:00:00,51.0,-99.9,29.88,North,359,20.0,25.0,-999,-99.99,,,-99.99,,2013-04-11 11:00:00,
2013-04-11 06:32:00,51.0,-99.9,29.88,North,359,20.0,25.0,-999,-99.99,,,-99.99,,2013-04-11 11:32:00,
2013-04-11 06:43:00,51.0,-99.9,29.88,North,359,20.0,25.0,-999,-99.99,,,-99.99,,2013-04-11 11:43:00,
2013-04-11 06:53:00,51.0,-99.9,29.88,North,359,20.0,25.0,-999,-99.99,,,-99.99,,2013-04-11 11:53:00,
2013-04-11 07:00:00,52.0,-99.9,29.89,NNE,12,25.0,33.0,-999,-99.99,,,-99.99,,2013-04-11 12:00:00,
2013-04-11 07:32:00,52.0,-99.9,29.89,NNE,12,25.0,33.0,-999,-99.99,,,-99.99,,2013-04-11 12:32:00,
2013-04-11 07:43:00,52.0,-99.9,29.89,NNE,12,25.0,33.0,-999,-99.99,,,-99.99,,2013-04-11 12:43:00,
2013-04-11 07:53:00,52.0,-99.9,29.89,NNE,12,25.0,33.0,-999,-99.99,,,-99.99,,2013-04-11 12:53:00,
2013-04-11 08:00:00,52.0,-99.9,29.86,NNE,26,23.0,30.0,-999,-99.99,,,-99.99,,2013-04-11 13:00:00,
2013-04-11 08:33:00,52.0,-99.9,29.86,NNE,26,23.0,30.0,-999,-99.99,,,-99.99,,2013-04-11 13:33:00,
2013-04-11 08:43:00,52.0,-99.9,29.86,NNE,26,23.0,30.0,-999,-99.99,,,-99.99,,2013-04-11 13:43:00,
2013-04-11 08:54:00,52.0,-99.9,29.86,NNE,26,23.0,30.0,-999,-99.99,,,-99.99,,2013-04-11 13:54:00,
2013-04-11 09:00:00,54.0,-99.9,29.90,North,2,17.0,22.0,-999,-99.99,,,-99.99,,2013-04-11 14:00:00,
2013-04-11 09:33:00,54.0,-99.9,29.90,North,2,17.0,22.0,-999,-99.99,,,-99.99,,2013-04-11 14:33:00,
2013-04-11 09:43:00,54.0,-99.9,29.90,North,2,17.0,22.0,-999,-99.99,,,-99.99,,2013-04-11 14:43:00,
2013-04-11 09:53:00,54.0,-99.9,29.90,North,2,17.0,22.0,-999,-99.99,,,-99.99,,2013-04-11 14:53:00,
2013-04-11 10:00:00,53.0,-99.9,29.94,NNW,336,22.0,25.0,-999,-99.99,,,-99.99,,2013-04-11 15:00:00,
2013-04-11 10:32:00,53.0,-99.9,29.94,NNW,336,22.0,25.0,-999,-99.99,,,-99.99,,2013-04-11 15:32:00,
2013-04-11 10:43:00,53.0,-99.9,29.94,NNW,336,22.0,25.0,-999,-99.99,,,-99.99,,2013-04-11 15:43:00,
2013-04-11 10:53:00,53.0,-99.9,29.94,NNW,336,22.0,25.0,-999,-99.99,,,-99.99,,2013-04-11 15:53:00,
2013-04-11 11:00:00,54.0,-99.9,29.96,North,349,16.0,21.0,-999,-99.99,,,-99.99,,2013-04-11 16:00:00,
2013-04-11 11:33:00,54.0,-99.9,29.96,North,349,16.0,21.0,-999,-99.99,,,-99.99,,2013-04-11 16:33:00,
2013-04-11 11:42:00,54.0,-99.9,29.96,North,349,16.0,21.0,-999,-99.99,,,-99.99,,2013-04-11 16:42:00,
2013-04-11 11:53:00,54.0,-99.9,29.96,North,349,16.0,21.0,-999,-99.99,,,-99.99,,2013-04-11 16:53:00,
2013-04-11 12:00:00,58.0,-99.9,29.95,North,355,15.0,19.0,-999,-99.99,,,-99.99,,2013-04-11 17:00:00,
2013-04-11 12:33:00,58.0,-99.9,29.95,North,355,15.0,19.0,-999,-99.99,,,-99.99,,2013-04-11 17:33:00,
2013-04-11 12:43:00,58.0,-99.9,29.95,North,355,15.0,19.0,-999,-99.99,,,-99.99,,2013-04-11 17:43:00,
2013-04-11 12:53:00,58.0,-99.9,29.95,North,355,15.0,19.0,-999,-99.99,,,-99.99,,2013-04-11 17:53:00,
2013-04-11 13:00:00,59.0,-99.9,29.91,NNW,338,13.0,15.0,-999,-99.99,,,-99.99,,2013-04-11 18:00:00,
2013-04-11 13:33:00,59.0,-99.9,29.91,NNW,338,13.0,15.0,-999,-99.99,,,-99.99,,2013-04-11 18:33:00,
2013-04-11 13:43:00,59.0,-99.9,29.91,NNW,338,13.0,15.0,-999,-99.99,,,-99.99,,2013-04-11 18:43:00,
2013-04-11 13:53:00,59.0,-99.9,29.91,NNW,338,13.0,15.0,-999,-99.99,,,-99.99,,2013-04-11 18:53:00,
2013-04-11 14:00:00,62.0,-99.9,29.89,NNW,348,7.0,10.0,-999,-99.99,,,-99.99,,2013-04-11 19:00:00,
2013-04-11 14:33:00,62.0,-99.9,29.89,NNW,348,7.0,10.0,-999,-99.99,,,-99.99,,2013-04-11 19:33:00,
2013-04-11 14:43:00,62.0,-99.9,29.89,NNW,348,7.0,10.0,-999,-99.99,,,-99.99,,2013-04-11 19:43:00,
2013-04-11 14:53:00,62.0,-99.9,29.89,NNW,348,7.0,10.0,-999,-99.99,,,-99.99,,2013-04-11 19:53:00,
2013-04-11 15:00:00,62.0,-99.9,29.87,NE,48,6.0,7.0,-999,-99.99,,,-99.99,,2013-04-11 20:00:00,
2013-04-11 15:34:00,62.0,-99.9,29.87,NE,48,6.0,7.0,-999,-99.99,,,-99.99,,2013-04-11 20:34:00,
2013-04-11 15:43:00,62.0,-99.9,29.87,NE,48,6.0,7.0,-999,-99.99,,,-99.99,,2013-04-11 20:43:00,
2013-04-11 15:53:00,62.0,-99.9,29.87,NE,48,6.0,7.0,-999,-99.99,,,-99.99,,2013-04-11 20:53:00,
2013-04-11 16:00:00,65.0,-99.9,29.82,NE,35,6.0,9.0,-999,-99.99,,,-99.99,,2013-04-11 21:00:00,
2013-04-11 16:33:00,65.0,-99.9,29.82,NE,35,6.0,9.0,-999,-99.99,,,-99.99,,2013-04-11 21:33:00,
2013-04-11 16:43:00,65.0,-99.9,29.82,NE,35,6.0,9.0,-999,-99.99,,,-99.99,,2013-04-11 21:43:00,
2013-04-11 16:54:00,65.0,-99.9,29.82,NE,35,6.0,9.0,-999,-99.99,,,-99.99,,2013-04-11 21:54:00,
2013-04-11 17:00:00,64.0,-99.9,29.81,East,96,10.0,13.0,-999,-99.99,,,-99.99,,2013-04-11 22:00:00,
2013-04-11 17:33:00,64.0,-99.9,29.81,East,96,10.0,13.0,-999,-99.99,,,-99.99,,2013-04-11 22:33:00,
2013-04-11 17:44:00,64.0,-99.9,29.81,East,96,10.0,13.0,-999,-99.99,,,-99.99,,2013-04-11 22:44:00,
2013-04-11 17:53:00,64.0,-99.9,29.81,East,96,10.0,13.0,-999,-99.99,,,-99.99,,2013-04-11 22:53:00,
2013-04-11 18:00:00,63.0,-99.9,29.80,ESE,106,12.0,15.0,-999,-99.99,,,-99.99,,2013-04-11 23:00:00,
2013-04-11 18:33:00,63.0,-99.9,29.80,ESE,106,12.0,15.0,-999,-99.99,,,-99.99,,2013-04-11 23:33:00,
2013-04-11 18:43:00,63.0,-99.9,29.80,ESE,106,12.0,15.0,-999,-99.99,,,-99.99,,2013-04-11 23:43:00,
2013-04-11 18:54:00,63.0,-99.9,29.80,ESE,106,12.0,15.0,-999,-99.99,,,-99.99,,2013-04-11 23:54:00,
2013-04-11 19:00:00,64.0,-99.9,29.80,SE,128,9.0,12.0,-999,-99.99,,,-99.99,,2013-04-12 00:00:00,
2013-04-11 19:33:00,64.0,-99.9,29.80,SE,128,9.0,12.0,-999,-99.99,,,-99.99,,2013-04-12 00:33:00,
2013-04-11 19:43:00,64.0,-99.9,29.80,SE,128,9.0,12.0,-999,-99.99,,,-99.99,,2013-04-12 00:43:00,
2013-04-11 19:53:00,64.0,-99.9,29.80,SE,128,9.0,12.0,-999,-99.99,,,-99.99,,2013-04-12 00:53:00,
2013-04-11 20:00:00,63.0,-99.9,29.80,ESE,119,9.0,11.0,-999,-99.99,,,-99.99,,2013-04-12 01:00:00,
2013-04-11 20:33:00,63.0,-99.9,29.80,ESE,119,9.0,11.0,-999,-99.99,,,-99.99,,2013-04-12 01:33:00,
2013-04-11 20:42:00,63.0,-99.9,29.80,ESE,119,9.0,11.0,-999,-99.99,,,-99.99,,2013-04-12 01:42:00,
2013-04-11 20:53:00,63.0,-99.9,29.80,ESE,119,9.0,11.0,-999,-99.99,,,-99.99,,2013-04-12 01:53:00,
2013-04-11 21:00:00,63.0,-99.9,29.82,ESE,118,11.0,13.0,-999,-99.99,,,-99.99,,2013-04-12 02:00:00,
2013-04-11 21:33:00,63.0,-99.9,29.82,ESE,118,11.0,13.0,-999,-99.99,,,-99.99,,2013-04-12 02:33:00,
2013-04-11 21:42:00,63.0,-99.9,29.82,ESE,118,11.0,13.0,-999,-99.99,,,-99.99,,2013-04-12 02:42:00,
2013-04-11 21:53:00,63.0,-99.9,29.82,ESE,118,11.0,13.0,-999,-99.99,,,-99.99,,2013-04-12 02:53:00,
2013-04-11 22:00:00,64.0,-99.9,29.83,ESE,112,11.0,13.0,-999,-99.99,,,-99.99,,2013-04-12 03:00:00,
2013-04-11 22:33:00,64.0,-99.9,29.83,ESE,112,11.0,13.0,-999,-99.99,,,-99.99,,2013-04-12 03:33:00,
2013-04-11 22:43:00,64.0,-99.9,29.83,ESE,112,11.0,13.0,-999,-99.99,,,-99.99,,2013-04-12 03:43:00,
2013-04-11 22:53:00,64.0,-99.9,29.83,ESE,112,11.0,13.0,-999,-99.99,,,-99.99,,2013-04-12 03:53:00,
2013-04-11 23:00:00,64.0,-99.9,29.88,SE,139,4.0,5.0,-999,-99.99,,,-99.99,,2013-04-12 04:00:00,
2013-04-11 23:33:00,64.0,-99.9,29.88,SE,139,4.0,5.0,-999,-99.99,,,-99.99,,2013-04-12 04:33:00,
2013-04-11 23:43:00,64.0,-99.9,29.88,SE,139,4.0,5.0,-999,-99.99,,,-99.99,,2013-04-12 04:43:00,
2013-04-11 23:53:00,64.0,-99.9,29.88,SE,139,4.0,5.0,-999,-99.99,,,-99.99,,2013-04-12 04:53:00,